ADDS METAR Data INFO
IDs: Format: Raw Decoded Include TAF

Data at: 1113 UTC 13 Dec 2017

KAUG 131053Z AUTO 30009G19KT 6SM BR SCT022 BKN039 M04/M06 A2910 RMK AO2 SNE53 PRESFR SLP858 P0000 T10391056 $
KAUG 131044Z AUTO 30013G21KT 3SM -SN BR BKN020 BKN039 OVC055 M03/M05 A2910 RMK AO2 PRESFR P0000 T10331050 $
KAUG 131019Z AUTO 29016G25KT 1 3/4SM -SN BR SCT020 OVC028 M03/M04 A2913 RMK AO2 P0000 T10281044 $
KAUG 131000Z AUTO 27009G16KT 5SM -SN BR FEW011 SCT017 OVC025 M02/M03 A2911 RMK AO2 P0000 T10171028 $
KAUG 130953Z AUTO 28009G16KT 4SM -SN BR BKN014 OVC022 M01/M03 A2910 RMK AO2 SNB14E29B45 SLP860 P0000 T10111028 $
KAUG 130906Z AUTO 29006KT 9SM SCT005 OVC018 M01/M02 A2908 RMK AO2 T10061017 $
KAUG 130853Z AUTO 26005KT 10SM BKN005 BKN011 OVC016 M01/M01 A2909 RMK AO2 SLP855 I3001 T10061011 56020 $
KAUG 130846Z AUTO 28005KT 10SM BKN005 OVC011 M01/M01 A2909 RMK AO2 T10061011 $
KAUG 130807Z AUTO 30005KT 8SM OVC004 M01/M01 A2910 RMK AO2 T10111011 $
KAUG 130753Z AUTO 34007KT 8SM BKN005 BKN009 OVC015 M01/M01 A2909 RMK AO2 SLP857 I1000 T10061011 $
KAUG 130726Z AUTO 34007KT 10SM OVC006 M01/M02 A2911 RMK AO2 CIG 004V009 I1000 T10111017 $
KAUG 130653Z AUTO 34006KT 3SM BR OVC003 M01/M02 A2911 RMK AO2 SLP864 I1001 T10111017 $
KAUG 130641Z AUTO 35007KT 3SM BR OVC003 M02/M02 A2912 RMK AO2 PRESFR I1001 T10171017 $
KAUG 130553Z AUTO 33007KT 2 1/2SM BR OVC003 M02/M02 A2915 RMK AO2 SLP876 6//// I1002 I6006 T10171022 11017 21039 56028 $
KAUG 130515Z AUTO 32007KT 2 1/2SM BR OVC002 M02/M03 A2917 RMK AO2 I1001 T10221028 $
KAUG 130453Z AUTO 30008KT 3SM BR OVC002 M02/M03 A2918 RMK AO2 SLP885 I1001 T10221028 410171100 $
KAUG 130353Z AUTO 35009KT 6SM BR OVC003 M02/M02 A2920 RMK AO2 SLP893 I1000 T10171022 PNO $
KAUG 130253Z AUTO VRB06KT 9SM OVC003 M02/M02 A2923 RMK AO2 UPB0158E07 SLP905 6//// I3003 T10171022 56055 PNO $
KAUG 130153Z AUTO 36009KT 10SM OVC003 M03/M03 A2927 RMK AO2 FZRAE02 SLP917 I1000 T10281033 PNO $
KAUG 130108Z AUTO 01008KT 10SM OVC003 M03/M03 A2933 RMK AO2 FZRAE02 I1000 T10281033 PNO $
KAUG 130053Z AUTO 02010KT 5SM -FZRA BR OVC004 M03/M04 A2934 RMK AO2 SLP941 I1003 T10281039 PNO $
KAUG 130015Z AUTO 03011KT 3SM -FZRA BR OVC004 M03/M04 A2938 RMK AO2 I1000 T10331039 PNO $
KAUG 130001Z AUTO 02009KT 2SM FZRA BR OVC004 M04/M04 A2939 RMK AO2 P0000 I1000 T10391044
KAUG 122353Z AUTO 01008KT 3SM FZRA BR OVC004 M04/M04 A2940 RMK AO2 PRESFR SLP961 P0002 60006 I1006 I6009 T10391044 11039 21078 56058
KAUG 122333Z AUTO 02011KT 3SM FZRA BR OVC004 M05/M06 A2942 RMK AO2 P0002 I1005 T10501061
KAUG 122253Z AUTO 03012KT 7SM -FZRA OVC005 M06/M07 A2946 RMK AO2 SLP982 P0000 I1002 T10611072
KAUG 122153Z AUTO 01008KT 7SM -FZRA OVC007 M07/M08 A2951 RMK AO2 UPB18E23FZRAB23SNE18 SLP001 P0002 I1001 T10671078
KAUG 122129Z AUTO 01010KT 7SM -FZRA OVC008 M07/M08 A2954 RMK AO2 UPB18E23FZRAB23SNE18 P0002 I1000 T10671083
KAUG 122104Z AUTO 01008KT 3SM -SN BR OVC009 M07/M09 A2956 RMK AO2 P0001 T10721089
KAUG 122059Z AUTO 01011KT 1 1/2SM -SN BR OVC009 M07/M09 A2957 RMK AO2 P0001 T10721089
KAUG 122053Z AUTO 02011KT 3/4SM -SN BR OVC010 M07/M09 A2957 RMK AO2 SLP021 P0001 60002 T10721089 58026
KAUG 122042Z AUTO 02009KT 3/4SM -SN BR OVC010 M07/M09 A2958 RMK AO2 P0001 T10721089
KAUG 121953Z AUTO 02009KT 1 1/4SM -SN BR OVC011 M07/M09 A2961 RMK AO2 SLP034 P0001 T10721089
KAUG 121946Z AUTO 02007KT 1SM -SN BR OVC010 M07/M09 A2962 RMK AO2 P0001 T10721094
KAUG 121935Z AUTO 02007KT 3/4SM -SN BR OVC010 M07/M09 A2962 RMK AO2 P0000 T10721094
KAUG 121853Z AUTO 02009KT 1 1/4SM -SN BR OVC011 M08/M10 A2965 RMK AO2 SLP046 P0000 T10781100
KAUG 121850Z AUTO 02011KT 1 1/4SM -SN BR OVC011 M08/M10 A2965 RMK AO2 P0000
KAUG 121801Z AUTO 02011KT 3/4SM -SN BR OVC013 M08/M10 A2969 RMK AO2 P0000 T10781100
KAUG 121753Z AUTO 01012KT 1SM -SN BR OVC013 M08/M10 A2969 RMK AO2 SLP062 P0000 60002 T10781100 11078 21100 56042
KAUG 121738Z AUTO 01009KT 1SM -SN BR OVC014 M08/M10 A2971 RMK AO2 P0000 T10781100
KAUG 121705Z AUTO 01009KT 3/4SM -SN BR VV014 M08/M10 A2974 RMK AO2 P0000 T10831100
KAUG 121653Z AUTO 02009KT 3/4SM -SN BR VV016 M08/M11 A2974 RMK AO2 SNE1556B23 PRESFR SLP079 P0001 T10831106
KAUG 121650Z AUTO 01010KT 3/4SM -SN BR VV018 M08/M11 A2975 RMK AO2 SNE1556B23 PRESFR P0001
KAUG 121641Z AUTO 03012KT 1SM -SN BR BKN022 OVC033 M08/M11 A2976 RMK AO2 SNE1556B23 P0000 T10831106
KAUG 121633Z AUTO 02012KT 2 1/2SM -SN BR FEW019 BKN028 OVC041 M08/M11 A2977 RMK AO2 SNE1556B23 P0000 T10831106
KAUG 121614Z AUTO 03008KT 7SM SCT014 BKN042 OVC050 M08/M11 A2979 RMK AO2 SNE1556 PRESFR P0000 T10831106
KAUG 121553Z AUTO 35008KT 6SM -SN BR OVC015 M09/M11 A2982 RMK AO2 SLP105 P0000 T10891106
KAUG 121516Z AUTO 36009KT 1 3/4SM -SN BR SCT021 OVC027 M09/M11 A2984 RMK AO2 P0000 T10891111
KAUG 121504Z AUTO 01008KT 3SM -SN BR BKN022 OVC027 M09/M11 A2984 RMK AO2 P0000 T10941111
KAUG 121453Z AUTO 01009KT 1 1/4SM -SN BR FEW010 OVC024 M09/M11 A2985 RMK AO2 SLP114 P0001 60001 T10941111 56023
KAUG 121451Z AUTO 01009KT 1SM -SN BR SCT010 OVC024 M09/M11 A2985 RMK AO2 P0001
KAUG 121443Z AUTO 01008KT 3/4SM -SN BR SCT010 OVC024 M09/M11 A2985 RMK AO2 P0001 T10941111
KAUG 121430Z AUTO 02006KT 1/4SM +SN FZFG BKN010 OVC014 M09/M11 A2987 RMK AO2 P0001 T10941111
KAUG 121409Z AUTO 02006KT 3/4SM -SN BR OVC014 M09/M12 A2987 RMK AO2 P0000 T10941117
KAUG 121353Z AUTO 02008KT 1SM -SN BR OVC016 M09/M12 A2987 RMK AO2 PRESFR SLP122 P0000 T10941117
KAUG 121342Z AUTO 02010KT 1SM -SN BR BKN018 OVC029 M09/M12 A2989 RMK AO2 P0000 T10941117
KAUG 121333Z AUTO 02008KT 2SM -SN BR BKN020 OVC029 M09/M12 A2989 RMK AO2 P0000 T10941117
KAUG 121317Z AUTO 01009KT 1 3/4SM -SN BR FEW022 BKN028 OVC038 M09/M12 A2991 RMK AO2 P0000 T10941117
KAUG 121303Z AUTO 01008KT 2SM -SN SCT028 OVC038 M09/M12 A2992 RMK AO2 P0000 T10941122
KAUG 121253Z AUTO 01010KT 2 1/2SM -SN BR FEW018 BKN028 OVC038 M10/M12 A2991 RMK AO2 SLP137 P0000 T11001122
KAUG 121232Z AUTO 02008KT 1 3/4SM -SN BR BKN019 OVC025 M10/M12 A2993 RMK AO2 P0000 T11001122
KAUG 121221Z AUTO 01009KT 3SM -SN BR BKN019 OVC025 M10/M12 A2994 RMK AO2 P0000 T11001122
KAUG 121153Z AUTO 36010KT 2SM -SN BR OVC019 M10/M12 A2995 RMK AO2 SLP149 P0001 60001 70001 T11001122 11083 21100 58013
KAUG 121143Z AUTO 01009KT 2SM -SN BR OVC019 M10/M12 A2996 RMK AO2 P0001 T11001122
KAUG 121053Z AUTO 01009KT 4SM -SN BR BKN022 OVC028 M10/M12 A2997 RMK AO2 SNB33 SLP155 P0000 T11001122
KAUG 121051Z AUTO 36008KT 4SM -SN BKN022 OVC028 M10/M13 A2997 RMK AO2 SNB33 P0000
KAUG 120953Z AUTO 36007KT 10SM BKN035 OVC048 M10/M13 A2999 RMK AO2 SLP162 T11001133
KAUG 120853Z AUTO 36007KT 10SM BKN070 OVC085 M09/M13 A3001 RMK AO2 SLP167 T10941133 58012
KAUG 120753Z AUTO 02006KT 10SM FEW037 SCT090 M09/M13 A3002 RMK AO2 SLP173 T10941133
KAUG 120653Z AUTO 03007KT 10SM SCT046 BKN100 M08/M13 A3005 RMK AO2 SLP179 T10831133
KAUG 120553Z AUTO 03006KT 10SM OVC120 M08/M13 A3004 RMK AO2 SLP179 T10831128 11050 21083 50000
KAUG 120453Z AUTO 07006KT 10SM CLR M08/M13 A3005 RMK AO2 SLP180 T10781128 400221078
KAUG 120353Z AUTO 03008KT 10SM OVC110 M08/M12 A3005 RMK AO2 SLP181 T10781122
KAUG 120253Z AUTO 03004KT 10SM CLR M07/M13 A3004 RMK AO2 SLP179 T10721128 53003
KAUG 120153Z AUTO 03008KT 10SM CLR M06/M12 A3003 RMK AO2 SLP175 T10611122
KAUG 120053Z AUTO 01006KT 10SM CLR M06/M11 A3003 RMK AO2 SLP176 T10561111
KAUG 112353Z AUTO 33007KT 10SM CLR M05/M11 A3003 RMK AO2 SLP175 60000 T10501106 10022 21050 51026